createdAt,value
2023-08-21T00:01:36.056Z,101274.63
2023-08-21T00:04:04.276Z,101272.06
2023-08-21T00:06:34.356Z,101260.97
2023-08-21T00:09:03.548Z,101281.09
2023-08-21T00:11:31.697Z,101277.47
2023-08-21T00:14:00.160Z,101280.84
2023-08-21T00:16:29.838Z,101284.53
2023-08-21T00:18:58.310Z,101277.19
2023-08-21T00:21:26.508Z,101285.94
2023-08-21T00:23:56.173Z,101280.84
2023-08-21T00:26:24.376Z,101280.56
2023-08-21T00:28:52.454Z,101284.25
2023-08-21T00:31:20.651Z,101285.38
2023-08-21T00:33:48.800Z,101286.22
2023-08-21T00:36:17.026Z,101282.84
2023-08-21T00:38:45.139Z,101292.72
2023-08-21T00:41:14.639Z,101290.16
2023-08-21T00:43:42.938Z,101286.47
2023-08-21T00:46:11.287Z,101291.84
2023-08-21T00:48:40.422Z,101296.97
2023-08-21T00:51:09.135Z,101290.91
2023-08-21T00:53:37.437Z,101286.22
2023-08-21T00:56:05.980Z,101288.22
2023-08-21T00:58:35.582Z,101295.28
2023-08-21T01:01:05.864Z,101287.22
2023-08-21T01:03:34.109Z,101298.97
2023-08-21T01:06:02.237Z,101292.59
2023-08-21T01:08:37.872Z,101297.22
2023-08-21T01:11:15.789Z,101293.59
2023-08-21T01:14:01.665Z,101294.28
2023-08-21T01:16:31.849Z,101284.53
2023-08-21T01:19:02.224Z,101286.34
2023-08-21T01:21:30.633Z,101285.53
2023-08-21T01:24:00.160Z,101275.72
2023-08-21T01:26:28.290Z,101288.22
2023-08-21T01:28:56.595Z,101274.03
2023-08-21T01:31:32.598Z,101273.03
2023-08-21T01:34:06.632Z,101270.50
2023-08-21T01:36:36.037Z,101274.03
2023-08-21T01:39:06.017Z,101272.34
2023-08-21T01:41:34.121Z,101272.34
2023-08-21T01:44:02.367Z,101271.47
2023-08-21T01:46:30.553Z,101276.00
2023-08-21T01:48:58.750Z,101276.00
2023-08-21T01:51:27.077Z,101265.25
2023-08-21T01:53:55.225Z,101272.34
2023-08-21T01:56:24.782Z,101272.34
2023-08-21T01:58:52.994Z,101277.72
2023-08-21T02:01:21.208Z,101270.63
2023-08-21T02:03:49.365Z,101274.19
2023-08-21T02:06:17.670Z,101276.72
2023-08-21T02:08:45.766Z,101283.09
2023-08-21T02:11:14.034Z,101286.47
2023-08-21T02:13:43.581Z,101280.41
2023-08-21T02:16:11.718Z,101277.72
2023-08-21T02:18:40.084Z,101277.72
2023-08-21T02:21:08.182Z,101279.16
2023-08-21T02:23:36.329Z,101277.47
2023-08-21T02:26:04.566Z,101273.78
2023-08-21T02:28:32.862Z,101282.56
2023-08-21T02:31:02.410Z,101280.84
2023-08-21T02:33:30.711Z,101281.09
2023-08-21T02:35:59.119Z,101273.03
2023-08-21T02:38:27.365Z,101268.66
2023-08-21T02:40:55.534Z,101273.78
2023-08-21T02:43:23.734Z,101273.78
2023-08-21T02:45:51.860Z,101276.47
2023-08-21T02:48:21.405Z,101274.91
2023-08-21T02:50:49.616Z,101270.34
2023-08-21T02:53:17.708Z,101273.03
2023-08-21T02:55:45.797Z,101274.03
2023-08-21T02:58:13.958Z,101283.38
2023-08-21T03:00:42.302Z,101286.75
2023-08-21T03:03:10.457Z,101287.63
2023-08-21T03:05:40.056Z,101295.53
2023-08-21T03:08:08.864Z,101296.28
2023-08-21T03:10:38.154Z,101301.66
2023-08-21T03:13:06.294Z,101291.84
2023-08-21T03:15:34.458Z,101295.53
2023-08-21T03:18:02.602Z,101285.66
2023-08-21T03:20:30.739Z,101273.44
2023-08-21T03:23:00.288Z,101292.13
2023-08-21T03:27:57.721Z,101285.06
2023-08-21T03:30:25.826Z,101275.31
2023-08-21T03:32:54.068Z,101279.69
2023-08-21T03:35:22.207Z,101284.78
2023-08-21T03:37:50.365Z,101272.34
2023-08-21T03:40:20.127Z,101282.09
2023-08-21T03:42:48.400Z,101281.09
2023-08-21T03:45:16.564Z,101274.31
2023-08-21T03:47:44.759Z,101257.06
2023-08-21T03:50:12.898Z,101263.28
2023-08-21T03:52:41.205Z,101259.88
2023-08-21T03:55:09.953Z,101259.59
2023-08-21T03:57:39.505Z,101267.53
2023-08-21T04:00:10.448Z,101272.91
2023-08-21T04:02:38.744Z,101276.88
2023-08-21T04:05:07.466Z,101271.34
2023-08-21T04:07:35.768Z,101269.53
2023-08-21T04:10:03.883Z,101274.03
2023-08-21T04:12:32.046Z,101271.09
2023-08-21T04:15:01.686Z,101271.53
2023-08-21T04:17:29.933Z,101269.81
2023-08-21T04:19:58.098Z,101280.56
2023-08-21T04:22:26.331Z,101266.44
2023-08-21T04:24:54.430Z,101270.09
2023-08-21T04:27:22.608Z,101270.09
2023-08-21T04:29:50.699Z,101264.44
2023-08-21T04:32:20.202Z,101267.13
2023-08-21T04:34:48.569Z,101266.44
2023-08-21T04:37:16.702Z,101259.06
2023-08-21T04:39:44.957Z,101261.75
2023-08-21T04:42:13.058Z,101260.78
2023-08-21T04:44:41.207Z,101264.16
2023-08-21T04:47:29.293Z,101262.47
2023-08-21T04:49:58.049Z,101257.09
2023-08-21T04:52:27.053Z,101264.16
2023-08-21T04:54:55.788Z,101260.78
2023-08-21T04:57:24.260Z,101252.00
2023-08-21T04:59:52.469Z,101253.69
2023-08-21T05:02:20.815Z,101260.78
2023-08-21T05:04:50.457Z,101262.47
2023-08-21T05:07:18.719Z,101262.75
2023-08-21T05:09:46.881Z,101253.97
2023-08-21T05:12:14.968Z,101259.19
2023-08-21T05:14:43.140Z,101251.13
2023-08-21T05:17:11.388Z,101264.44
2023-08-21T05:19:39.582Z,101260.91
2023-08-21T05:22:09.432Z,101260.78
2023-08-21T05:24:37.618Z,101255.13
2023-08-21T05:27:06.544Z,101245.19
2023-08-21T05:29:35.883Z,101262.22
2023-08-21T05:32:04.178Z,101269.41
2023-08-21T05:34:32.704Z,101260.50
2023-08-21T05:37:00.899Z,101260.50
2023-08-21T05:39:31.048Z,101262.47
2023-08-21T05:41:59.948Z,101266.16
2023-08-21T05:44:28.104Z,101259.94
2023-08-21T05:46:56.380Z,101267.84
2023-08-21T05:49:24.633Z,101261.63
2023-08-21T05:51:52.832Z,101260.78
2023-08-21T05:54:21.052Z,101259.94
2023-08-21T05:56:50.550Z,101253.69
2023-08-21T05:59:30.309Z,101269.81
2023-08-21T06:01:58.411Z,101264.44
2023-08-21T06:04:28.457Z,101261.06
2023-08-21T06:06:57.246Z,101265.31
2023-08-21T06:09:25.362Z,101257.22
2023-08-21T06:11:54.890Z,101259.06
2023-08-21T06:14:29.867Z,101266.44
2023-08-21T06:17:00.065Z,101273.22
2023-08-21T06:19:28.533Z,101269.53
2023-08-21T06:21:56.951Z,101273.22
2023-08-21T06:24:25.337Z,101283.97
2023-08-21T06:26:55.461Z,101276.91
2023-08-21T06:29:23.599Z,101284.25
2023-08-21T06:31:51.750Z,101280.56
2023-08-21T06:34:19.885Z,101281.44
2023-08-21T06:36:48.103Z,101280.56
2023-08-21T06:39:16.490Z,101281.56
2023-08-21T06:41:44.764Z,101281.44
2023-08-21T06:44:14.426Z,101287.66
2023-08-21T06:46:42.583Z,101292.19
2023-08-21T06:49:10.746Z,101282.28
2023-08-21T06:51:38.992Z,101287.66
2023-08-21T06:54:07.265Z,101286.81
2023-08-21T06:56:35.420Z,101283.97
2023-08-21T06:59:03.761Z,101296.44
2023-08-21T07:01:33.338Z,101296.56
2023-08-21T07:04:01.555Z,101298.44
2023-08-21T07:06:30.441Z,101221.19
2023-08-21T07:08:58.793Z,101298.44
2023-08-21T07:11:26.920Z,101296.69
2023-08-21T07:13:55.060Z,101293.31
2023-08-21T07:16:24.257Z,101299.53
2023-08-21T07:18:54.235Z,101291.59
2023-08-21T07:21:33.128Z,101303.22
2023-08-21T07:24:03.766Z,101292.31
2023-08-21T07:26:33.398Z,101290.75
2023-08-21T07:29:01.556Z,101299.53
2023-08-21T07:31:29.846Z,101302.06
2023-08-21T07:33:59.395Z,101298.44
2023-08-21T07:36:27.537Z,101301.81
2023-08-21T07:38:55.699Z,101301.81
2023-08-21T07:41:24.803Z,101299.13
2023-08-21T07:43:55.289Z,101305.50
2023-08-21T07:46:23.471Z,101299.13
2023-08-21T07:48:52.060Z,101302.53
2023-08-21T07:51:21.821Z,101300.72
2023-08-21T07:53:49.957Z,101300.13
2023-08-21T07:56:18.052Z,101305.50
2023-08-21T07:58:46.412Z,101301.25
2023-08-21T08:01:14.605Z,101299.53
2023-08-21T08:03:42.859Z,101298.69
2023-08-21T08:06:11.028Z,101287.94
2023-08-21T08:08:40.903Z,101297.97
2023-08-21T08:11:09.024Z,101299.66
2023-08-21T08:13:37.187Z,101293.31
2023-08-21T08:16:05.628Z,101304.06
2023-08-21T08:18:33.804Z,101306.63
2023-08-21T08:21:01.922Z,101302.34
2023-08-21T08:23:30.100Z,101307.72
2023-08-21T08:25:59.722Z,101305.75
2023-08-21T08:28:27.847Z,101305.75
2023-08-21T08:30:56.302Z,101309.44
2023-08-21T08:33:24.467Z,101302.34
2023-08-21T08:35:52.636Z,101311.13
2023-08-21T08:38:21.712Z,101312.00
2023-08-21T08:40:53.285Z,101309.88
2023-08-21T08:43:24.430Z,101319.66
2023-08-21T08:45:55.119Z,101323.56
2023-08-21T08:48:24.065Z,101327.25
2023-08-21T08:50:53.716Z,101330.09
2023-08-21T08:53:22.398Z,101324.56
2023-08-21T08:55:51.256Z,101320.19
2023-08-21T08:58:19.368Z,101329.22
2023-08-21T09:00:48.990Z,101320.47
2023-08-21T09:03:17.888Z,101330.94
2023-08-21T09:05:46.076Z,101338.03
2023-08-21T09:08:15.392Z,101328.25
2023-08-21T09:10:46.758Z,101328.25
2023-08-21T09:13:15.961Z,101323.56
2023-08-21T09:15:45.216Z,101325.56
2023-08-21T09:18:16.075Z,101315.09
2023-08-21T09:20:44.566Z,101322.16
2023-08-21T09:23:16.484Z,101290.03
2023-08-21T09:25:48.526Z,101318.75
2023-08-21T09:28:20.572Z,101323.03
2023-08-21T09:30:53.597Z,101320.47
2023-08-21T09:33:24.268Z,101322.16
2023-08-21T09:35:54.707Z,101319.59
2023-08-21T09:38:22.897Z,101323.16
2023-08-21T09:40:55.670Z,101313.38
2023-08-21T09:43:24.692Z,101317.63
2023-08-21T09:45:56.635Z,101318.75
2023-08-21T09:48:28.626Z,101315.09
2023-08-21T09:50:58.052Z,101315.09
2023-08-21T09:53:26.438Z,101309.97
2023-08-21T09:55:55.787Z,101316.78
2023-08-21T09:58:24.650Z,101299.75
2023-08-21T10:00:58.471Z,101318.75
2023-08-21T10:03:29.153Z,101316.78
2023-08-21T10:06:00.138Z,101315.78
2023-08-21T10:08:29.872Z,101316.78
2023-08-21T10:10:59.465Z,101316.50
2023-08-21T10:13:29.460Z,101311.41
2023-08-21T10:15:57.675Z,101312.28
2023-08-21T10:18:32.264Z,101313.09
2023-08-21T10:21:13.456Z,101317.06
2023-08-21T10:26:13.743Z,101317.06
2023-08-21T10:28:50.681Z,101309.72
2023-08-21T10:31:29.236Z,101311.41
2023-08-21T10:33:59.921Z,101315.09
2023-08-21T10:37:11.423Z,101313.09
2023-08-21T10:39:41.211Z,101308.72
2023-08-21T10:42:15.277Z,101317.63
2023-08-21T10:44:53.170Z,101318.47
2023-08-21T10:47:22.860Z,101322.03
2023-08-21T10:49:53.909Z,101314.81
2023-08-21T10:52:27.083Z,101318.75
2023-08-21T10:54:57.420Z,101324.97
2023-08-21T10:57:26.117Z,101323.84
2023-08-21T10:59:56.514Z,101326.53
2023-08-21T11:02:24.933Z,101329.50
2023-08-21T11:04:55.486Z,101325.84
2023-08-21T11:07:23.965Z,101325.84
2023-08-21T11:09:52.106Z,101319.59
2023-08-21T11:12:21.922Z,101322.16
2023-08-21T11:14:50.528Z,101246.63
2023-08-21T11:17:19.939Z,101327.53
2023-08-21T11:19:49.690Z,101320.47
2023-08-21T11:22:19.645Z,101327.53
2023-08-21T11:24:49.256Z,101324.97
2023-08-21T11:27:20.162Z,101331.47
2023-08-21T11:29:51.640Z,101321.44
2023-08-21T11:32:21.306Z,101319.00
2023-08-21T11:34:54.063Z,101313.38
2023-08-21T11:37:25.092Z,101331.22
2023-08-21T11:39:54.904Z,101331.22
2023-08-21T11:42:24.647Z,101330.34
2023-08-21T11:44:54.476Z,101298.84
2023-08-21T11:47:24.057Z,101333.44
2023-08-21T11:49:53.843Z,101331.47
2023-08-21T11:52:26.745Z,101294.00
2023-08-21T11:54:56.444Z,101337.81
2023-08-21T11:57:24.598Z,101332.44
2023-08-21T11:59:53.802Z,101329.75
2023-08-21T12:02:25.906Z,101334.31
2023-08-21T12:05:03.293Z,101329.75
2023-08-21T12:07:32.878Z,101317.41
2023-08-21T12:10:01.206Z,101328.06
2023-08-21T12:12:29.350Z,101332.44
2023-08-21T12:14:58.156Z,101326.38
2023-08-21T12:17:26.289Z,101321.56
2023-08-21T12:19:54.447Z,101329.75
2023-08-21T12:22:22.591Z,101328.06
2023-08-21T12:24:52.105Z,101328.06
2023-08-21T12:27:21.398Z,101335.13
2023-08-21T12:29:49.511Z,101328.94
2023-08-21T12:32:18.313Z,101333.44
2023-08-21T12:34:46.618Z,101331.63
2023-08-21T12:37:17.072Z,101325.38
2023-08-21T12:39:46.264Z,101324.38
2023-08-21T12:42:15.804Z,101325.25
2023-08-21T12:44:43.889Z,101324.38
2023-08-21T12:47:12.044Z,101326.09
2023-08-21T12:49:40.187Z,101322.41
2023-08-21T12:52:10.467Z,101247.22
2023-08-21T12:54:39.452Z,101324.38
2023-08-21T12:57:08.720Z,101318.19
2023-08-21T12:59:38.291Z,101322.41
2023-08-21T13:02:06.833Z,101329.75
2023-08-21T13:04:35.674Z,101324.38
2023-08-21T13:07:04.699Z,101332.91
2023-08-21T13:09:33.947Z,101324.13
2023-08-21T13:12:02.196Z,101324.13
2023-08-21T13:14:32.656Z,101325.84
2023-08-21T13:17:02.437Z,101322.41
2023-08-21T13:19:30.523Z,101320.47
2023-08-21T13:21:58.660Z,101325.84
2023-08-21T13:24:29.286Z,101331.22
2023-08-21T13:26:57.781Z,101318.75
2023-08-21T13:29:25.942Z,101309.72
2023-08-21T13:31:54.101Z,101321.16
2023-08-21T13:34:23.596Z,101314.81
2023-08-21T13:36:51.772Z,101316.50
2023-08-21T13:39:19.939Z,101321.03
2023-08-21T13:41:48.073Z,101314.81
2023-08-21T13:44:16.186Z,101310.53
2023-08-21T13:46:44.279Z,101313.38
2023-08-21T13:49:12.410Z,101312.53
2023-08-21T13:51:42.199Z,101313.38
2023-08-21T13:54:10.395Z,101308.97
2023-08-21T13:56:38.526Z,101311.66
2023-08-21T13:59:08.337Z,101311.66
2023-08-21T14:01:36.510Z,101308.00
2023-08-21T14:04:07.395Z,101304.34
2023-08-21T14:06:35.533Z,101302.34
2023-08-21T14:09:05.576Z,101306.56
2023-08-21T14:11:33.743Z,101308.53
2023-08-21T14:14:01.875Z,101306.81
2023-08-21T14:16:30.108Z,101303.41
2023-08-21T14:18:58.373Z,101302.44
2023-08-21T14:21:26.520Z,101312.22
2023-08-21T14:23:55.052Z,101306.81
2023-08-21T14:26:24.675Z,101305.69
2023-08-21T14:28:52.798Z,101304.00
2023-08-21T14:31:20.916Z,101308.25
2023-08-21T14:33:49.125Z,101310.25
2023-08-21T14:36:17.405Z,101304.88
2023-08-21T14:38:46.607Z,101307.44
2023-08-21T14:41:14.731Z,101304.00
2023-08-21T14:43:44.260Z,101294.94
2023-08-21T14:46:13.515Z,101292.13
2023-08-21T14:48:43.078Z,101288.47
2023-08-21T14:51:11.240Z,101295.81
2023-08-21T14:53:39.355Z,101286.06
2023-08-21T14:56:07.645Z,101271.63
2023-08-21T14:58:35.845Z,101276.00
2023-08-21T15:01:05.652Z,101282.25
2023-08-21T15:03:33.846Z,101279.41
2023-08-21T15:06:02.016Z,101268.94
2023-08-21T15:08:30.483Z,101268.06
2023-08-21T15:10:58.590Z,101265.97
2023-08-21T15:13:26.903Z,101258.91
2023-08-21T15:15:55.218Z,101264.97
2023-08-21T15:18:24.762Z,101258.63
2023-08-21T15:20:53.163Z,101264.97
2023-08-21T15:23:21.254Z,101260.47
2023-08-21T15:25:49.756Z,101264.97
2023-08-21T15:28:17.910Z,101266.69
2023-08-21T15:30:46.221Z,101256.78
2023-08-21T15:33:14.788Z,101247.69
2023-08-21T15:35:44.344Z,101262.16
2023-08-21T15:38:12.457Z,101259.59
2023-08-21T15:40:42.753Z,101250.56
2023-08-21T15:43:12.834Z,101268.41
2023-08-21T15:45:40.992Z,101261.31
2023-08-21T15:48:09.210Z,101259.59
2023-08-21T15:50:37.452Z,101259.59
2023-08-21T15:53:08.581Z,101255.94
2023-08-21T15:55:37.064Z,101267.66
2023-08-21T15:58:07.382Z,101258.91
2023-08-21T16:00:35.580Z,101270.63
2023-08-21T16:03:05.434Z,101273.31
2023-08-21T16:05:33.663Z,101271.63
2023-08-21T16:08:01.883Z,101277.00
2023-08-21T16:10:31.545Z,101268.94
2023-08-21T16:12:59.647Z,101271.63
2023-08-21T16:15:27.826Z,101267.81
2023-08-21T16:17:56.293Z,101264.97
2023-08-21T16:20:25.541Z,101273.03
2023-08-21T16:22:53.766Z,101261.47
2023-08-21T16:25:22.318Z,101262.44
2023-08-21T16:27:51.915Z,101262.69
2023-08-21T16:30:20.382Z,101251.66
2023-08-21T16:32:48.549Z,101259.88
2023-08-21T16:35:16.990Z,101259.88
2023-08-21T16:37:45.535Z,101246.56
2023-08-21T16:40:14.227Z,101254.50
2023-08-21T16:42:42.721Z,101252.53
2023-08-21T16:45:15.398Z,101240.66
2023-08-21T16:47:46.630Z,101238.09
2023-08-21T16:50:15.442Z,101236.13
2023-08-21T16:52:43.871Z,101237.81
2023-08-21T16:55:12.435Z,101237.81
2023-08-21T16:57:40.737Z,101231.63
2023-08-21T17:00:11.260Z,101240.38
2023-08-21T17:02:41.681Z,101244.06
2023-08-21T17:05:11.210Z,101241.25
2023-08-21T17:07:40.019Z,101234.44
2023-08-21T17:10:09.352Z,101235.88
2023-08-21T17:12:38.054Z,101241.25
2023-08-21T17:15:08.124Z,101250.03
2023-08-21T17:17:37.052Z,101245.75
2023-08-21T17:20:08.412Z,101248.56
2023-08-21T17:22:36.560Z,101237.81
2023-08-21T17:25:14.316Z,101247.16
2023-08-21T17:27:43.694Z,101240.38
2023-08-21T17:30:12.959Z,101242.06
2023-08-21T17:32:41.427Z,101240.38
2023-08-21T17:35:11.506Z,101240.09
2023-08-21T17:37:39.873Z,101231.31
2023-08-21T17:40:09.805Z,101236.41
2023-08-21T17:42:38.121Z,101240.09
2023-08-21T17:45:07.108Z,101240.22
2023-08-21T17:47:35.303Z,101234.72
2023-08-21T17:50:03.752Z,101239.81
2023-08-21T17:52:33.312Z,101240.78
2023-08-21T17:55:02.003Z,101236.41
2023-08-21T17:57:30.110Z,101234.72
2023-08-21T17:59:58.337Z,101240.38
2023-08-21T18:02:27.601Z,101242.06
2023-08-21T18:04:56.442Z,101238.38
2023-08-21T18:07:24.660Z,101231.31
2023-08-21T18:09:54.642Z,101238.50
2023-08-21T18:12:23.481Z,101227.88
2023-08-21T18:14:51.793Z,101233.25
2023-08-21T18:17:19.952Z,101237.53
2023-08-21T18:19:48.315Z,101241.78
2023-08-21T18:22:16.695Z,101210.88
2023-08-21T18:24:44.960Z,101231.03
2023-08-21T18:27:15.034Z,101229.34
2023-08-21T18:29:43.172Z,101232.16
2023-08-21T18:32:19.329Z,100890.06
2023-08-21T18:34:47.485Z,101234.72
2023-08-21T18:37:15.733Z,101227.63
2023-08-21T18:39:43.994Z,101208.31
2023-08-21T18:42:12.373Z,101225.66
2023-08-21T18:44:42.175Z,101224.94
2023-08-21T18:47:10.283Z,101236.41
2023-08-21T18:49:38.665Z,101172.03
2023-08-21T18:52:07.226Z,101240.09
2023-08-21T18:54:35.499Z,101234.72
2023-08-21T18:57:03.934Z,101204.78
2023-08-21T18:59:32.765Z,101158.84
2023-08-21T19:02:02.615Z,101236.13
2023-08-21T19:04:33.269Z,101228.22
2023-08-21T19:07:07.052Z,101236.41
2023-08-21T19:09:35.941Z,101227.34
2023-08-21T19:12:04.475Z,101234.44
2023-08-21T19:14:32.644Z,101225.38
2023-08-21T19:17:02.715Z,101230.22
2023-08-21T19:19:30.837Z,101240.97
2023-08-21T19:21:59.101Z,101233.03
2023-08-21T19:24:27.294Z,101230.50
2023-08-21T19:26:55.501Z,101167.78
2023-08-21T19:29:23.683Z,101225.94
2023-08-21T19:31:52.091Z,101214.84
2023-08-21T19:34:23.020Z,101230.75
2023-08-21T19:36:51.345Z,101230.75
2023-08-21T19:39:19.529Z,101176.84
2023-08-21T19:41:47.715Z,101238.81
2023-08-21T19:44:15.996Z,101242.50
2023-08-21T19:46:44.118Z,101246.03
2023-08-21T19:49:14.546Z,101243.47
2023-08-21T19:51:44.860Z,101252.25
2023-08-21T19:54:13.069Z,101246.88
2023-08-21T19:56:41.321Z,101146.31
2023-08-21T19:59:09.772Z,101253.97
2023-08-21T20:01:39.555Z,101244.94
2023-08-21T20:04:07.771Z,101241.25
2023-08-21T20:06:36.666Z,101241.25
2023-08-21T20:09:06.345Z,101232.44
2023-08-21T20:11:34.868Z,101219.69
2023-08-21T20:14:03.821Z,101232.19
2023-08-21T20:16:31.967Z,101232.91
2023-08-21T20:19:00.182Z,101239.28
2023-08-21T20:21:30.221Z,101234.72
2023-08-21T20:23:59.651Z,101147.72
2023-08-21T20:26:32.496Z,101211.50
2023-08-21T20:29:00.760Z,101224.84
2023-08-21T20:31:28.933Z,101226.53
2023-08-21T20:33:57.222Z,101220.47
2023-08-21T20:36:26.178Z,101223.16
2023-08-21T20:38:54.795Z,101219.75
2023-08-21T20:41:23.036Z,101207.28
2023-08-21T20:43:52.580Z,101092.19
2023-08-21T20:46:21.034Z,101218.03
2023-08-21T20:48:49.181Z,101222.56
2023-08-21T20:51:17.308Z,101216.31
2023-08-21T20:53:45.545Z,101138.34
2023-08-21T20:56:13.782Z,101223.41
2023-08-21T20:58:42.025Z,101159.28
2023-08-21T21:01:11.639Z,101223.69
2023-08-21T21:03:40.035Z,101225.66
2023-08-21T21:06:08.578Z,101223.69
2023-08-21T21:08:36.725Z,101213.50
2023-08-21T21:11:04.917Z,101212.94
2023-08-21T21:13:33.255Z,101220.28
2023-08-21T21:16:01.454Z,101221.97
2023-08-21T21:18:31.201Z,101231.03
2023-08-21T21:20:59.337Z,101224.94
2023-08-21T21:23:27.699Z,101220.28
2023-08-21T21:26:00.601Z,101226.25
2023-08-21T21:28:29.146Z,101232.44
2023-08-21T21:30:58.452Z,101107.03
2023-08-21T21:33:28.372Z,101224.38
2023-08-21T21:36:00.148Z,101225.66
2023-08-21T21:38:28.435Z,101234.19
2023-08-21T21:40:56.734Z,101225.94
2023-08-21T21:43:25.699Z,101222.84
2023-08-21T21:45:58.354Z,101214.63
2023-08-21T21:48:26.727Z,101209.97
2023-08-21T21:50:54.877Z,101216.59
2023-08-21T21:53:28.643Z,101195.63
2023-08-21T21:55:57.186Z,101225.38
2023-08-21T21:58:26.527Z,101233.00
2023-08-21T22:00:54.744Z,101229.34
2023-08-21T22:03:22.983Z,101233.00
2023-08-21T22:05:51.201Z,101225.06
2023-08-21T22:08:18.692Z,101223.97
2023-08-21T22:10:48.746Z,101224.94
2023-08-21T22:13:17.195Z,101220.81
2023-08-21T22:15:46.517Z,101225.19
2023-08-21T22:18:14.879Z,101226.34
2023-08-21T22:20:43.136Z,101232.44
2023-08-21T22:23:11.465Z,101227.88
2023-08-21T22:25:39.753Z,101218.88
2023-08-21T22:28:09.725Z,101227.06
2023-08-21T22:30:37.852Z,101143.97
2023-08-21T22:33:06.589Z,101226.19
2023-08-21T22:35:34.759Z,101221.81
2023-08-21T22:38:02.882Z,101224.25
2023-08-21T22:40:31.021Z,101238.63
2023-08-21T22:42:59.334Z,101232.56
2023-08-21T22:45:28.894Z,101236.94
2023-08-21T22:47:57.181Z,101230.56
2023-08-21T22:50:25.385Z,101183.31
2023-08-21T22:52:53.490Z,101231.56
2023-08-21T22:55:21.681Z,101220.81
2023-08-21T22:57:50.050Z,101167.47
2023-08-21T23:00:19.104Z,101213.63
2023-08-21T23:02:48.609Z,101149.34
2023-08-21T23:05:18.102Z,101203.00
2023-08-21T23:07:46.328Z,101207.25
2023-08-21T23:10:14.572Z,101200.19
2023-08-21T23:12:43.709Z,101203.69
2023-08-21T23:15:12.283Z,101194.94
2023-08-21T23:17:40.669Z,101197.63
2023-08-21T23:20:11.695Z,101194.22
2023-08-21T23:22:40.009Z,101116.56
2023-08-21T23:25:09.390Z,101182.47
2023-08-21T23:27:38.004Z,101119.66
2023-08-21T23:30:07.469Z,101181.50
2023-08-21T23:32:35.616Z,101174.72
2023-08-21T23:35:04.013Z,101178.38
2023-08-21T23:37:34.177Z,101186.59
2023-08-21T23:40:02.263Z,101184.88
2023-08-21T23:42:30.700Z,101079.91
2023-08-21T23:44:58.920Z,101184.63
2023-08-21T23:47:27.249Z,101194.81
2023-08-21T23:49:55.512Z,101191.16
2023-08-21T23:52:23.583Z,101174.72
2023-08-21T23:54:53.113Z,101180.97
2023-08-21T23:57:21.838Z,101176.41
2023-08-21T23:59:50.154Z,101174.72
